createdAt,value
2018-04-23T00:00:02.865Z,72.20
2018-04-23T00:02:30.326Z,73.00
2018-04-23T00:04:58.610Z,71.90
2018-04-23T00:07:26.064Z,71.90
2018-04-23T00:09:53.513Z,72.20
2018-04-23T00:12:20.959Z,72.00
2018-04-23T00:14:48.412Z,72.30
2018-04-23T00:17:15.858Z,72.80
2018-04-23T00:19:43.317Z,72.20
2018-04-23T00:22:10.772Z,71.40
2018-04-23T00:24:38.221Z,71.60
2018-04-23T00:27:05.690Z,71.50
2018-04-23T00:29:33.129Z,71.40
2018-04-23T00:32:00.595Z,71.10
2018-04-23T00:34:28.036Z,70.90
2018-04-23T00:36:56.254Z,71.20
2018-04-23T00:39:23.721Z,71.20
2018-04-23T00:41:51.958Z,70.90
2018-04-23T00:44:19.408Z,70.80
2018-04-23T00:46:46.861Z,70.40
2018-04-23T00:49:14.308Z,70.10
2018-04-23T00:51:42.524Z,70.20
2018-04-23T00:54:09.973Z,70.10
2018-04-23T00:56:37.418Z,69.80
2018-04-23T00:59:04.896Z,69.80
2018-04-23T01:01:32.347Z,70.50
2018-04-23T01:03:59.798Z,69.30
2018-04-23T01:06:27.250Z,69.70
2018-04-23T01:08:54.693Z,68.70
2018-04-23T01:11:22.145Z,69.60
2018-04-23T01:13:49.594Z,69.20
2018-04-23T01:16:17.817Z,69.80
2018-04-23T01:18:45.265Z,69.70
2018-04-23T01:21:12.727Z,69.50
2018-04-23T01:23:40.173Z,70.40
2018-04-23T01:26:07.646Z,70.00
2018-04-23T01:28:35.110Z,70.70
2018-04-23T01:31:02.549Z,70.30
2018-04-23T01:33:30.000Z,69.90
2018-04-23T01:35:57.453Z,70.00
2018-04-23T01:38:24.914Z,70.30
2018-04-23T01:40:52.382Z,70.50
2018-04-23T01:43:19.829Z,70.50
2018-04-23T01:45:47.290Z,71.40
2018-04-23T01:48:14.731Z,70.20
2018-04-23T01:50:42.177Z,70.90
2018-04-23T01:53:09.621Z,70.90
2018-04-23T01:55:37.854Z,71.30
2018-04-23T01:58:05.306Z,71.30
2018-04-23T02:00:32.746Z,71.20
2018-04-23T02:03:00.198Z,71.40
2018-04-23T02:05:27.651Z,71.50
2018-04-23T02:07:55.148Z,71.20
2018-04-23T02:10:22.602Z,71.60
2018-04-23T02:12:50.059Z,71.40
2018-04-23T02:15:18.049Z,71.60
2018-04-23T02:17:45.498Z,71.60
2018-04-23T02:20:12.947Z,71.90
2018-04-23T02:22:40.394Z,72.20
2018-04-23T02:25:07.841Z,72.30
2018-04-23T02:27:35.289Z,73.30
2018-04-23T02:30:02.741Z,73.20
2018-04-23T02:32:30.191Z,72.40
2018-04-23T02:34:57.649Z,72.40
2018-04-23T02:37:25.113Z,72.30
2018-04-23T02:39:52.549Z,72.90
2018-04-23T02:42:20.010Z,73.30
2018-04-23T02:44:47.453Z,74.10
2018-04-23T02:47:14.908Z,74.30
2018-04-23T02:49:43.117Z,74.70
2018-04-23T02:52:10.575Z,74.50
2018-04-23T02:54:38.030Z,74.60
2018-04-23T02:57:05.482Z,74.50
2018-04-23T02:59:32.929Z,75.30
2018-04-23T03:02:00.366Z,75.30
2018-04-23T03:04:27.825Z,75.70
2018-04-23T03:06:55.274Z,75.60
2018-04-23T03:09:23.507Z,75.70
2018-04-23T03:11:50.955Z,75.60
2018-04-23T03:14:18.406Z,75.40
2018-04-23T03:16:45.863Z,76.40
2018-04-23T03:19:13.330Z,76.30
2018-04-23T03:21:40.794Z,75.90
2018-04-23T03:24:08.235Z,76.20
2018-04-23T03:26:35.695Z,76.50
2018-04-23T03:29:03.137Z,76.80
2018-04-23T03:31:30.597Z,76.20
2018-04-23T03:33:58.058Z,76.20
2018-04-23T03:36:25.502Z,76.30
2018-04-23T03:38:52.965Z,76.60
2018-04-23T03:41:20.410Z,75.40
2018-04-23T03:43:47.872Z,75.30
2018-04-23T03:46:15.314Z,74.90
2018-04-23T03:48:42.760Z,74.60
2018-04-23T03:51:10.981Z,75.40
2018-04-23T03:53:38.454Z,75.40
2018-04-23T03:56:05.897Z,74.20
2018-04-23T03:58:33.358Z,74.70
2018-04-23T04:01:00.814Z,74.80
2018-04-23T04:03:28.274Z,74.80
2018-04-23T04:05:55.725Z,74.20
2018-04-23T04:08:23.169Z,74.20
2018-04-23T04:10:50.719Z,74.80
2018-04-23T04:13:29.982Z,74.10
2018-04-23T04:16:09.385Z,74.10
2018-04-23T04:18:45.767Z,74.30
2018-04-23T04:21:13.232Z,74.20
2018-04-23T04:23:40.674Z,75.10
2018-04-23T04:26:08.119Z,74.20
2018-04-23T04:28:35.571Z,74.80
2018-04-23T04:31:03.026Z,74.80
2018-04-23T04:33:30.479Z,75.00
2018-04-23T04:35:57.922Z,74.40
2018-04-23T04:38:26.129Z,75.60
2018-04-23T04:40:53.579Z,75.40
2018-04-23T04:43:21.038Z,75.50
2018-04-23T04:45:48.486Z,75.90
2018-04-23T04:48:15.937Z,75.30
2018-04-23T04:50:44.147Z,75.90
2018-04-23T04:53:11.593Z,75.90
2018-04-23T04:55:39.053Z,75.20
2018-04-23T04:58:06.501Z,75.90
2018-04-23T05:00:33.969Z,74.90
2018-04-23T05:03:01.440Z,74.40
2018-04-23T05:05:28.869Z,75.30
2018-04-23T05:07:56.326Z,75.70
2018-04-23T05:10:23.766Z,75.40
2018-04-23T05:12:51.214Z,75.90
2018-04-23T05:15:18.665Z,75.40
2018-04-23T05:17:46.882Z,75.10
2018-04-23T05:20:14.363Z,75.00
2018-04-23T05:22:41.807Z,75.70
2018-04-23T05:25:09.269Z,75.80
2018-04-23T05:27:36.725Z,75.40
2018-04-23T05:30:04.184Z,74.20
2018-04-23T05:32:32.401Z,74.80
2018-04-23T05:35:00.620Z,75.00
2018-04-23T05:37:28.063Z,75.00
2018-04-23T05:39:55.506Z,75.10
2018-04-23T05:42:22.955Z,74.90
2018-04-23T05:44:51.185Z,73.20
2018-04-23T05:47:18.635Z,73.20
2018-04-23T05:49:46.845Z,72.50
2018-04-23T05:52:15.070Z,74.10
2018-04-23T05:54:42.517Z,74.10
2018-04-23T05:57:09.966Z,74.40
2018-04-23T05:59:37.407Z,74.90
2018-04-23T06:02:04.878Z,72.80
2018-04-23T06:04:32.315Z,73.30
2018-04-23T06:07:00.528Z,71.40
2018-04-23T06:09:28.073Z,71.30
2018-04-23T06:11:55.516Z,70.60
2018-04-23T06:14:23.916Z,72.10
2018-04-23T06:16:51.374Z,71.20
2018-04-23T06:19:18.854Z,70.60
2018-04-23T06:21:46.385Z,70.10
2018-04-23T06:24:14.002Z,68.50
2018-04-23T06:26:42.217Z,66.50
2018-04-23T06:29:09.677Z,66.50
2018-04-23T06:31:37.111Z,67.10
2018-04-23T06:34:04.571Z,65.10
2018-04-23T06:36:32.025Z,65.70
2018-04-23T06:38:59.480Z,65.40
2018-04-23T06:41:26.936Z,64.50
2018-04-23T06:43:54.387Z,64.50
2018-04-23T06:46:22.630Z,61.70
2018-04-23T06:48:50.054Z,61.70
2018-04-23T06:51:17.510Z,61.10
2018-04-23T06:53:44.958Z,59.40
2018-04-23T06:56:12.411Z,60.10
2018-04-23T06:58:39.865Z,60.10
2018-04-23T07:01:07.303Z,60.70
2018-04-23T07:03:35.529Z,61.00
2018-04-23T07:06:02.984Z,60.80
2018-04-23T07:08:30.558Z,59.80
2018-04-23T07:10:58.007Z,61.50
2018-04-23T07:13:25.460Z,59.00
2018-04-23T07:15:52.913Z,61.60
2018-04-23T07:18:20.366Z,59.60
2018-04-23T07:20:47.823Z,59.50
2018-04-23T07:23:15.274Z,58.80
2018-04-23T07:25:42.735Z,58.80
2018-04-23T07:28:10.183Z,57.60
2018-04-23T07:30:38.524Z,58.50
2018-04-23T07:33:06.245Z,58.50
2018-04-23T07:35:33.808Z,57.30
2018-04-23T07:38:01.804Z,58.00
2018-04-23T07:40:29.411Z,57.60
2018-04-23T07:42:57.085Z,56.80
2018-04-23T07:45:24.906Z,56.30
2018-04-23T07:47:53.241Z,56.00
2018-04-23T07:50:20.680Z,56.00
2018-04-23T07:52:48.126Z,56.90
2018-04-23T07:55:15.579Z,56.80
2018-04-23T07:57:43.028Z,56.30
2018-04-23T08:00:10.493Z,58.20
2018-04-23T08:02:37.947Z,56.20
2018-04-23T08:05:05.410Z,56.30
2018-04-23T08:07:32.860Z,56.00
2018-04-23T08:10:00.316Z,54.00
2018-04-23T08:12:27.758Z,54.30
2018-04-23T08:14:55.213Z,56.90
2018-04-23T08:17:23.428Z,55.90
2018-04-23T08:19:50.893Z,55.80
2018-04-23T08:22:18.347Z,55.20
2018-04-23T08:24:45.831Z,55.60
2018-04-23T08:27:13.288Z,52.20
2018-04-23T08:29:40.734Z,54.00
2018-04-23T08:32:08.177Z,56.60
2018-04-23T08:34:35.638Z,56.40
2018-04-23T08:37:03.093Z,54.20
2018-04-23T08:39:30.533Z,55.60
2018-04-23T08:41:57.997Z,52.90
2018-04-23T08:44:25.452Z,51.30
2018-04-23T08:46:52.894Z,48.70
2018-04-23T08:49:20.357Z,49.30
2018-04-23T08:51:47.829Z,51.00
2018-04-23T08:54:15.280Z,51.20
2018-04-23T08:56:42.730Z,49.50
2018-04-23T08:59:10.181Z,49.20
2018-04-23T09:01:37.661Z,50.50
2018-04-23T09:04:05.116Z,49.90
2018-04-23T09:06:32.567Z,50.60
2018-04-23T09:09:00.020Z,49.30
2018-04-23T09:11:27.482Z,50.50
2018-04-23T09:13:54.933Z,46.90
2018-04-23T09:16:22.390Z,47.20
2018-04-23T09:18:49.853Z,44.10
2018-04-23T09:21:17.331Z,44.80
2018-04-23T09:23:44.769Z,47.80
2018-04-23T09:26:12.219Z,43.40
2018-04-23T09:28:39.685Z,44.30
2018-04-23T09:31:07.135Z,47.80
2018-04-23T09:33:34.585Z,47.10
2018-04-23T09:36:02.039Z,47.00
2018-04-23T09:38:29.486Z,46.30
2018-04-23T09:40:56.941Z,46.40
2018-04-23T09:43:24.406Z,49.10
2018-04-23T09:45:51.869Z,47.70
2018-04-23T09:48:19.337Z,45.00
2018-04-23T09:50:46.790Z,47.30
2018-04-23T09:53:14.242Z,48.10
2018-04-23T09:55:41.697Z,45.80
2018-04-23T09:58:09.174Z,42.70
2018-04-23T10:00:36.632Z,43.10
2018-04-23T10:03:08.703Z,42.50
2018-04-23T10:05:36.145Z,40.70
2018-04-23T10:08:03.609Z,43.60
2018-04-23T10:10:31.066Z,39.10
2018-04-23T10:12:58.536Z,39.10
2018-04-23T10:15:25.984Z,39.60
2018-04-23T10:17:53.425Z,39.00
2018-04-23T10:20:20.890Z,39.30
2018-04-23T10:22:49.106Z,41.20
2018-04-23T10:25:17.332Z,41.40
2018-04-23T10:27:44.781Z,41.40
2018-04-23T10:30:12.221Z,41.90
2018-04-23T10:32:39.673Z,42.40
2018-04-23T10:35:07.129Z,43.40
2018-04-23T10:37:34.595Z,42.40
2018-04-23T10:40:02.159Z,43.60
2018-04-23T10:42:29.625Z,42.30
2018-04-23T10:44:57.098Z,43.60
2018-04-23T10:47:24.545Z,43.10
2018-04-23T10:49:52.035Z,41.90
2018-04-23T10:52:19.487Z,42.60
2018-04-23T10:54:46.946Z,42.30
2018-04-23T10:57:14.389Z,42.70
2018-04-23T10:59:41.843Z,46.70
2018-04-23T11:02:09.311Z,44.00
2018-04-23T11:04:36.755Z,43.50
2018-04-23T11:07:04.206Z,43.10
2018-04-23T11:09:31.641Z,45.30
2018-04-23T11:11:59.111Z,44.60
2018-04-23T11:14:26.567Z,44.10
2018-04-23T11:16:54.039Z,46.10
2018-04-23T11:19:21.487Z,44.20
2018-04-23T11:21:48.938Z,43.70
2018-04-23T11:24:16.392Z,43.80
2018-04-23T11:26:43.829Z,45.20
2018-04-23T11:29:11.280Z,45.50
2018-04-23T11:31:38.723Z,45.40
2018-04-23T11:34:06.941Z,47.10
2018-04-23T11:36:34.386Z,47.20
2018-04-23T11:39:01.843Z,45.60
2018-04-23T11:41:29.303Z,44.20
2018-04-23T11:43:56.757Z,46.10
2018-04-23T11:46:24.291Z,46.30
2018-04-23T11:48:52.498Z,48.10
2018-04-23T11:51:19.958Z,48.10
2018-04-23T11:53:47.440Z,43.70
2018-04-23T11:56:14.890Z,42.00
2018-04-23T11:58:42.342Z,43.80
2018-04-23T12:01:09.798Z,43.40
2018-04-23T12:03:37.253Z,43.10
2018-04-23T12:06:04.693Z,44.30
2018-04-23T12:08:32.150Z,42.90
2018-04-23T12:10:59.614Z,44.80
2018-04-23T12:13:27.071Z,45.30
2018-04-23T12:15:54.536Z,44.80
2018-04-23T12:18:21.994Z,45.60
2018-04-23T12:20:49.434Z,46.70
2018-04-23T12:23:16.881Z,48.60
2018-04-23T12:25:44.340Z,48.70
2018-04-23T12:28:11.810Z,51.10
2018-04-23T12:30:39.268Z,48.40
2018-04-23T12:33:06.730Z,49.00
2018-04-23T12:35:34.214Z,48.70
2018-04-23T12:38:01.729Z,48.30
2018-04-23T12:40:29.165Z,48.00
2018-04-23T12:42:56.625Z,47.00
2018-04-23T12:45:24.678Z,46.90
2018-04-23T12:47:52.912Z,47.30
2018-04-23T12:50:20.361Z,47.40
2018-04-23T12:52:47.824Z,47.10
2018-04-23T12:55:15.278Z,47.90
2018-04-23T12:57:42.738Z,46.10
2018-04-23T13:00:10.246Z,47.50
2018-04-23T13:02:38.469Z,47.30
2018-04-23T13:05:05.943Z,47.30
2018-04-23T13:07:33.389Z,47.60
2018-04-23T13:10:00.862Z,48.40
2018-04-23T13:12:28.304Z,46.00
2018-04-23T13:14:55.762Z,46.70
2018-04-23T13:17:23.213Z,47.00
2018-04-23T13:19:50.665Z,48.40
2018-04-23T13:22:18.126Z,47.10
2018-04-23T13:24:45.571Z,46.20
2018-04-23T13:27:13.036Z,45.40
2018-04-23T13:29:40.569Z,46.20
2018-04-23T13:32:08.042Z,46.40
2018-04-23T13:34:35.497Z,46.50
2018-04-23T13:37:02.950Z,45.90
2018-04-23T13:39:30.414Z,51.00
2018-04-23T13:41:57.896Z,46.10
2018-04-23T13:44:25.345Z,45.70
2018-04-23T13:46:52.809Z,49.30
2018-04-23T13:49:20.271Z,50.90
2018-04-23T13:51:47.725Z,52.20
2018-04-23T13:54:15.179Z,51.60
2018-04-23T13:56:42.621Z,52.90
2018-04-23T13:59:10.088Z,53.60
2018-04-23T14:01:37.544Z,54.00
2018-04-23T14:04:05.015Z,54.70
2018-04-23T14:06:32.467Z,55.90
2018-04-23T14:08:59.934Z,56.10
2018-04-23T14:11:27.400Z,56.50
2018-04-23T14:13:55.670Z,58.10
2018-04-23T14:16:23.159Z,58.10
2018-04-23T14:18:51.525Z,58.60
2018-04-23T14:21:18.992Z,58.60
2018-04-23T14:23:46.449Z,59.00
2018-04-23T14:26:13.901Z,60.00
2018-04-23T14:28:42.192Z,61.30
2018-04-23T14:31:09.692Z,61.20
2018-04-23T14:33:37.174Z,61.60
2018-04-23T14:36:04.700Z,61.70
2018-04-23T14:38:32.154Z,61.70
2018-04-23T14:40:59.611Z,61.10
2018-04-23T14:43:27.057Z,60.70
2018-04-23T14:45:54.545Z,61.00
2018-04-23T14:48:22.047Z,60.00
2018-04-23T14:50:49.523Z,60.80
2018-04-23T14:53:16.986Z,60.90
2018-04-23T14:55:44.446Z,61.50
2018-04-23T14:58:11.902Z,61.40
2018-04-23T15:00:39.371Z,62.00
2018-04-23T15:03:07.604Z,63.50
2018-04-23T15:05:35.061Z,63.50
2018-04-23T15:08:02.523Z,63.60
2018-04-23T15:10:30.228Z,63.50
2018-04-23T15:12:57.751Z,63.60
2018-04-23T15:15:25.252Z,63.10
2018-04-23T15:17:52.768Z,62.40
2018-04-23T15:20:20.972Z,64.10
2018-04-23T15:22:48.421Z,64.10
2018-04-23T15:25:15.878Z,63.20
2018-04-23T15:27:43.329Z,64.10
2018-04-23T15:30:10.799Z,63.80
2018-04-23T15:32:38.251Z,64.20
2018-04-23T15:35:05.709Z,64.40
2018-04-23T15:37:33.157Z,64.80
2018-04-23T15:40:00.605Z,64.60
2018-04-23T15:42:28.058Z,64.80
2018-04-23T15:44:55.505Z,65.50
2018-04-23T15:47:22.953Z,66.40
2018-04-23T15:49:50.406Z,66.20
2018-04-23T15:52:18.630Z,66.30
2018-04-23T15:54:46.096Z,66.30
2018-04-23T15:57:13.543Z,67.30
2018-04-23T15:59:40.983Z,67.30
2018-04-23T16:02:08.441Z,67.30
2018-04-23T16:04:35.907Z,67.70
2018-04-23T16:07:03.358Z,68.20
2018-04-23T16:09:30.825Z,68.70
2018-04-23T16:11:58.274Z,68.40
2018-04-23T16:14:25.738Z,68.70
2018-04-23T16:16:53.178Z,68.90
2018-04-23T16:19:20.631Z,68.70
2018-04-23T16:21:48.077Z,68.60
2018-04-23T16:24:15.545Z,68.00
2018-04-23T16:26:42.999Z,68.80
2018-04-23T16:29:10.454Z,67.60
2018-04-23T16:31:37.907Z,68.50
2018-04-23T16:34:05.362Z,68.50
2018-04-23T16:36:32.805Z,67.70
2018-04-23T16:39:01.013Z,68.10
2018-04-23T16:41:28.467Z,68.00
2018-04-23T16:43:55.913Z,68.80
2018-04-23T16:46:23.387Z,69.20
2018-04-23T16:48:50.858Z,69.00
2018-04-23T16:51:18.318Z,69.80
2018-04-23T16:53:45.895Z,69.50
2018-04-23T16:56:14.858Z,70.10
2018-04-23T16:58:42.375Z,70.10
2018-04-23T17:01:09.832Z,71.30
2018-04-23T17:03:38.038Z,71.20
2018-04-23T17:06:05.487Z,71.10
2018-04-23T17:08:32.932Z,73.10
2018-04-23T17:11:00.377Z,71.80
2018-04-23T17:13:28.606Z,72.60
2018-04-23T17:15:56.058Z,72.60
2018-04-23T17:18:23.507Z,72.60
2018-04-23T17:20:50.965Z,72.10
2018-04-23T17:23:18.435Z,72.30
2018-04-23T17:25:45.889Z,72.30
2018-04-23T17:28:13.330Z,71.90
2018-04-23T17:30:40.782Z,70.60
2018-04-23T17:33:08.237Z,70.40
2018-04-23T17:35:35.700Z,69.60
2018-04-23T17:38:03.149Z,70.20
2018-04-23T17:40:30.608Z,69.10
2018-04-23T17:42:58.058Z,68.90
2018-04-23T17:45:25.525Z,68.60
2018-04-23T17:47:52.974Z,69.40
2018-04-23T17:50:20.433Z,70.30
2018-04-23T17:52:47.888Z,70.40
2018-04-23T17:55:15.334Z,71.70
2018-04-23T17:57:42.778Z,71.40
2018-04-23T18:00:11.007Z,72.70
2018-04-23T18:02:38.458Z,72.70
2018-04-23T18:05:05.930Z,72.40
2018-04-23T18:07:33.374Z,73.70
2018-04-23T18:10:00.833Z,73.30
2018-04-23T18:12:29.434Z,73.20
2018-04-23T18:14:56.874Z,74.00
2018-04-23T18:17:24.321Z,74.10
2018-04-23T18:19:51.772Z,73.80
2018-04-23T18:22:19.216Z,74.10
2018-04-23T18:24:46.694Z,74.40
2018-04-23T18:27:14.137Z,75.10
2018-04-23T18:29:41.606Z,74.70
2018-04-23T18:32:09.047Z,74.40
2018-04-23T18:34:36.501Z,74.60
2018-04-23T18:37:03.954Z,74.80
2018-04-23T18:39:31.453Z,74.80
2018-04-23T18:41:58.847Z,74.90
2018-04-23T18:44:27.061Z,75.20
2018-04-23T18:46:54.516Z,75.10
2018-04-23T18:49:21.970Z,75.40
2018-04-23T18:51:49.442Z,74.70
2018-04-23T18:54:17.660Z,75.50
2018-04-23T18:56:45.873Z,75.20
2018-04-23T18:59:13.327Z,75.30
2018-04-23T19:01:40.802Z,75.50
2018-04-23T19:04:08.241Z,75.20
2018-04-23T19:06:35.710Z,75.20
2018-04-23T19:09:03.927Z,75.70
2018-04-23T19:11:32.138Z,75.90
2018-04-23T19:13:59.585Z,75.80
2018-04-23T19:16:27.038Z,75.70
2018-04-23T19:18:54.497Z,76.40
2018-04-23T19:21:21.952Z,76.60
2018-04-23T19:23:49.429Z,77.30
2018-04-23T19:26:16.878Z,77.10
2018-04-23T19:28:44.336Z,77.50
2018-04-23T19:31:11.799Z,78.00
2018-04-23T19:33:40.152Z,78.70
2018-04-23T19:36:08.366Z,79.30
2018-04-23T19:38:35.834Z,79.10
2018-04-23T19:41:03.287Z,79.60
2018-04-23T19:43:31.505Z,79.70
2018-04-23T19:45:59.815Z,79.90
2018-04-23T19:48:27.189Z,79.90
2018-04-23T19:50:54.641Z,80.00
2018-04-23T19:53:22.122Z,80.20
2018-04-23T19:55:49.569Z,80.30
2018-04-23T19:58:17.031Z,80.40
2018-04-23T20:00:44.502Z,81.20
2018-04-23T20:03:11.956Z,80.40
2018-04-23T20:05:39.406Z,80.40
2018-04-23T20:08:06.858Z,80.40
2018-04-23T20:10:34.314Z,80.30
2018-04-23T20:13:01.775Z,80.30
2018-04-23T20:15:29.230Z,80.70
2018-04-23T20:17:56.671Z,80.90
2018-04-23T20:20:24.129Z,80.80
2018-04-23T20:22:51.589Z,81.00
2018-04-23T20:25:19.039Z,81.20
2018-04-23T20:27:46.498Z,80.80
2018-04-23T20:30:13.946Z,80.80
2018-04-23T20:32:41.405Z,81.10
2018-04-23T20:35:08.861Z,81.20
2018-04-23T20:37:36.303Z,81.80
2018-04-23T20:40:03.753Z,82.00
2018-04-23T20:42:31.201Z,83.00
2018-04-23T20:44:58.654Z,84.10
2018-04-23T20:47:26.872Z,86.20
2018-04-23T20:49:54.329Z,86.00
2018-04-23T20:52:21.797Z,86.50
2018-04-23T20:54:49.245Z,87.30
2018-04-23T20:57:16.697Z,87.30
2018-04-23T20:59:44.908Z,89.60
2018-04-23T21:02:12.360Z,90.10
2018-04-23T21:04:39.878Z,89.50
2018-04-23T21:07:07.260Z,90.40
2018-04-23T21:09:34.717Z,90.30
2018-04-23T21:12:02.182Z,89.90
2018-04-23T21:14:29.634Z,88.60
2018-04-23T21:16:57.098Z,89.50
2018-04-23T21:19:24.558Z,89.50
2018-04-23T21:21:52.006Z,89.40
2018-04-23T21:24:19.461Z,89.20
2018-04-23T21:26:46.907Z,90.20
2018-04-23T21:29:14.362Z,90.50
2018-04-23T21:31:41.809Z,90.40
2018-04-23T21:34:09.273Z,91.30
2018-04-23T21:36:36.723Z,91.40
2018-04-23T21:39:04.166Z,91.50
2018-04-23T21:41:31.643Z,91.30
2018-04-23T21:43:59.862Z,92.10
2018-04-23T21:46:28.086Z,92.00
2018-04-23T21:48:55.531Z,92.00
2018-04-23T21:51:23.003Z,92.20
2018-04-23T21:53:50.437Z,92.30
2018-04-23T21:56:17.905Z,92.20
2018-04-23T21:58:45.358Z,92.70
2018-04-23T22:01:12.841Z,92.70
2018-04-23T22:03:40.299Z,93.10
2018-04-23T22:06:07.755Z,92.60
2018-04-23T22:08:35.218Z,93.00
2018-04-23T22:11:02.674Z,92.80
2018-04-23T22:13:30.118Z,93.20
2018-04-23T22:15:57.578Z,93.70
2018-04-23T22:18:25.063Z,93.70
2018-04-23T22:20:52.492Z,94.20
2018-04-23T22:23:19.942Z,94.20
2018-04-23T22:25:47.405Z,94.50
2018-04-23T22:28:14.858Z,94.40
2018-04-23T22:30:42.314Z,94.40
2018-04-23T22:33:09.762Z,94.70
2018-04-23T22:35:37.222Z,94.50
2018-04-23T22:38:04.673Z,94.80
2018-04-23T22:40:32.134Z,94.60
2018-04-23T22:42:59.598Z,94.80
2018-04-23T22:45:27.060Z,94.60
2018-04-23T22:47:54.518Z,94.70
2018-04-23T22:50:22.057Z,94.70
2018-04-23T22:52:50.200Z,94.80
2018-04-23T22:55:18.416Z,94.70
2018-04-23T22:57:45.902Z,94.70
2018-04-23T23:00:13.366Z,94.70
2018-04-23T23:02:40.831Z,94.70
2018-04-23T23:05:08.283Z,94.40
2018-04-23T23:07:35.746Z,94.30
2018-04-23T23:10:03.201Z,94.50
2018-04-23T23:12:30.650Z,94.80
2018-04-23T23:14:58.106Z,94.80
2018-04-23T23:17:25.554Z,95.20
2018-04-23T23:19:53.018Z,95.40
2018-04-23T23:22:20.525Z,95.70
2018-04-23T23:24:47.985Z,95.20
2018-04-23T23:27:15.451Z,95.10
2018-04-23T23:29:42.903Z,95.40
2018-04-23T23:32:10.370Z,95.20
2018-04-23T23:34:37.907Z,95.40
2018-04-23T23:37:05.369Z,95.40
2018-04-23T23:39:32.814Z,95.50
2018-04-23T23:42:00.275Z,95.40
2018-04-23T23:44:27.720Z,95.50
2018-04-23T23:46:55.205Z,95.60
2018-04-23T23:49:22.637Z,95.50
2018-04-23T23:51:50.099Z,95.20
2018-04-23T23:54:17.537Z,95.60
2018-04-23T23:56:45.745Z,95.40
2018-04-23T23:59:13.222Z,95.40
